Detalii statie TARCEA AGRO TARCEA [0000197E]

Toti senzorii

Date Temperatura solului [C]Precipitatii [mm]Voltaj baterie [mV]Leaf Wetness [Min]HC Air temperature [C]HC Relative humidity [%]Punctul de roua [C]
medieminmaxsumaultimatimpmedieminmaxmediemediemin
2019-06-15 17:00:00 0 6834 33.62 32.34 34.81 38.81 17.3 16.5
2019-06-15 18:00:00 0 6816 31.47 30.66 32.16 50.5 19.6 18.9
2019-06-15 19:00:00 0 6826 30.58 29.79 31.26 60.51 21.8 20.8
2019-06-15 20:00:00 0 6816 29.26 28.52 30.32 69.38 22.9 22.4
2019-06-15 21:00:00 0 6816 26.78 25.82 28.16 78.67 22.6 22.1
2019-06-15 22:00:00 0 6806 25.2 24.24 26.01 80.7 21.5 21.3
2019-06-15 23:00:00 0 6806 23.62 23.17 24.36 83.4 20.4 20.2
2019-06-16 00:00:00 0 6806 23.15 22.03 23.92 85.67 20.4 20
2019-06-16 01:00:00 0 6796 21.99 21.57 22.4 92.25 20.5 20.3
2019-06-16 02:00:00 0 6806 21.78 21.39 22.06 92.85 20.4 20
2019-06-16 03:00:00 0 6796 21.07 20.78 21.4 95.34 20.1 20
2019-06-16 04:00:00 0 6796 20.16 19.84 20.8 98.92 19.8 19.7
2019-06-16 05:00:00 0 6796 20.01 19.75 20.36 100 19.9 19.7
2019-06-16 06:00:00 0 6826 19.82 19.38 20.61 100 19.7 19.3
2019-06-16 07:00:00 0 6904 21.73 20.75 23.32 96.89 21.1 20.7
2019-06-16 08:00:00 0 6942 24.93 23.79 26.42 78.76 20.8 19.5
2019-06-16 09:00:00 0 6982 27.73 26.75 29.05 57.97 18.5 18
2019-06-16 10:00:00 0 6992 29.1 28.36 29.57 53.73 18.5 17.9
2019-06-16 11:00:00 0 6972 30.64 29.81 31.38 50.44 19 18.5
2019-06-16 12:00:00 0 7176 32.04 31.37 32.84 48.18 19.4 18.7
2019-06-16 13:00:00 0 7158 33.37 32.26 34.1 43.84 19.1 18
2019-06-16 14:00:00 0 7020 33.67 33.22 34.3 40.52 18.1 17.3
2019-06-16 15:00:00 0 7030 33.96 33.26 34.69 36.5 16.7 16.4
2019-06-16 16:00:00 0 6864 33.2 32.95 33.64 36.47 16 15.6
2019-06-16 17:00:00 0 6884 32.22 31.27 33.2 39.81 16.5 14.3
2019-06-16 18:00:00 0 6864 32.31 32.07 32.95 41.64 17.4 16.8
2019-06-16 19:00:00 0 6834 31.32 30.2 32.15 47.97 18.7 17.9
2019-06-16 20:00:00 0 6834 29.27 28.1 30.06 56.94 19.6 19.1
2019-06-16 21:00:00 0 6826 27.3 25.52 28.06 63.48 19.5 17.9
2019-06-16 22:00:00 2 6816 22.41 20.59 25.21 80.6 18.6 17.4
2019-06-16 23:00:00 41.8 6816 19.16 17.74 20.13 100 19.1 17.7
2019-06-17 00:00:00 1.8 6806 18.34 17.88 18.92 100 18.2 17.8
2019-06-17 01:00:00 0.2 6806 18.06 17.89 18.23 100 18 17.8
2019-06-17 02:00:00 0.6 6806 18.3 18.19 18.37 100 18.2 18.1
2019-06-17 03:00:00 0 6796 18.88 18.42 19.27 100 18.8 18.4
2019-06-17 04:00:00 0 6796 18.86 18.75 19.15 100 18.8 18.7
2019-06-17 05:00:00 0.2 6796 18.48 18.22 18.79 100 18.4 18.2
2019-06-17 06:00:00 0 6834 18.3 18.17 18.55 100 18.2 18.1
2019-06-17 07:00:00 0 6914 19.4 18.5 20.77 98.11 19 18.5
2019-06-17 08:00:00 0.2 6942 20.45 20.22 20.78 88.88 18.4 17.8
2019-06-17 09:00:00 0 6962 21.27 20.59 21.96 86.76 18.8 18.6
2019-06-17 10:00:00 0 7196 21.95 21.29 22.87 82.71 18.7 18.3
2019-06-17 11:00:00 0 7138 23.41 22.84 24.49 76.42 18.8 18.5
2019-06-17 12:00:00 0 7098 24.5 23.63 25.51 72.54 19 18.5
2019-06-17 13:00:00 0 7158 25.76 25.3 26.17 68.44 19.3 18.7
2019-06-17 14:00:00 0 7254 26.18 25.54 26.86 66.87 19.3 19
2019-06-17 15:00:00 0 7108 26.48 26.2 27.06 68.4 20 19.3